sensor_id;sensor_type;location;lat;lon;timestamp;temperature;humidity
23116;DHT22;11727;52.134;5.052;2023-01-29T00:01:49;3.90;99.90
23116;DHT22;11727;52.134;5.052;2023-01-29T00:04:14;3.90;99.90
23116;DHT22;11727;52.134;5.052;2023-01-29T00:06:40;3.90;99.90
23116;DHT22;11727;52.134;5.052;2023-01-29T00:09:06;3.90;99.90
23116;DHT22;11727;52.134;5.052;2023-01-29T00:11:31;3.90;99.90
23116;DHT22;11727;52.134;5.052;2023-01-29T00:13:57;3.90;99.90
23116;DHT22;11727;52.134;5.052;2023-01-29T00:16:23;4.00;99.90
23116;DHT22;11727;52.134;5.052;2023-01-29T00:18:49;4.00;99.90
23116;DHT22;11727;52.134;5.052;2023-01-29T00:21:19;4.00;99.90
23116;DHT22;11727;52.134;5.052;2023-01-29T00:23:47;4.00;99.90
23116;DHT22;11727;52.134;5.052;2023-01-29T00:26:13;4.00;99.90
23116;DHT22;11727;52.134;5.052;2023-01-29T00:28:39;4.00;99.90
23116;DHT22;11727;52.134;5.052;2023-01-29T00:31:09;3.90;99.90
23116;DHT22;11727;52.134;5.052;2023-01-29T00:33:35;4.00;99.90
23116;DHT22;11727;52.134;5.052;2023-01-29T00:36:05;4.00;99.90
23116;DHT22;11727;52.134;5.052;2023-01-29T00:38:32;4.00;99.90
23116;DHT22;11727;52.134;5.052;2023-01-29T00:41:03;4.00;99.90
23116;DHT22;11727;52.134;5.052;2023-01-29T00:43:48;4.00;99.90
23116;DHT22;11727;52.134;5.052;2023-01-29T00:46:32;4.00;99.90
23116;DHT22;11727;52.134;5.052;2023-01-29T00:48:57;4.00;99.90
23116;DHT22;11727;52.134;5.052;2023-01-29T00:51:23;4.00;99.90
23116;DHT22;11727;52.134;5.052;2023-01-29T00:53:48;4.00;99.90
23116;DHT22;11727;52.134;5.052;2023-01-29T00:56:14;4.00;99.90
23116;DHT22;11727;52.134;5.052;2023-01-29T00:58:40;4.00;99.90
23116;DHT22;11727;52.134;5.052;2023-01-29T01:01:05;4.00;99.90
23116;DHT22;11727;52.134;5.052;2023-01-29T01:03:31;3.90;99.90
23116;DHT22;11727;52.134;5.052;2023-01-29T01:06:06;4.00;99.90
23116;DHT22;11727;52.134;5.052;2023-01-29T01:08:32;4.00;99.90
23116;DHT22;11727;52.134;5.052;2023-01-29T01:11:17;4.00;99.90
23116;DHT22;11727;52.134;5.052;2023-01-29T01:13:42;3.90;99.90
23116;DHT22;11727;52.134;5.052;2023-01-29T01:16:09;3.90;99.90
23116;DHT22;11727;52.134;5.052;2023-01-29T01:18:35;4.00;99.90
23116;DHT22;11727;52.134;5.052;2023-01-29T01:21:02;4.00;99.90
23116;DHT22;11727;52.134;5.052;2023-01-29T01:23:28;3.90;99.90
23116;DHT22;11727;52.134;5.052;2023-01-29T01:25:53;3.90;99.90
23116;DHT22;11727;52.134;5.052;2023-01-29T01:28:19;3.90;99.90
23116;DHT22;11727;52.134;5.052;2023-01-29T01:30:45;3.90;99.90
23116;DHT22;11727;52.134;5.052;2023-01-29T01:33:10;4.00;99.90
23116;DHT22;11727;52.134;5.052;2023-01-29T01:35:37;3.90;99.90
23116;DHT22;11727;52.134;5.052;2023-01-29T01:38:03;4.00;99.90
23116;DHT22;11727;52.134;5.052;2023-01-29T01:40:29;4.00;99.90
23116;DHT22;11727;52.134;5.052;2023-01-29T01:42:56;4.00;99.90
23116;DHT22;11727;52.134;5.052;2023-01-29T01:48:08;4.00;99.90
23116;DHT22;11727;52.134;5.052;2023-01-29T01:50:41;4.00;99.90
23116;DHT22;11727;52.134;5.052;2023-01-29T01:53:11;4.00;99.90
23116;DHT22;11727;52.134;5.052;2023-01-29T01:55:41;4.00;99.90
23116;DHT22;11727;52.134;5.052;2023-01-29T01:58:12;3.90;99.90
23116;DHT22;11727;52.134;5.052;2023-01-29T02:00:40;3.90;99.90
23116;DHT22;11727;52.134;5.052;2023-01-29T02:03:07;3.90;99.90
23116;DHT22;11727;52.134;5.052;2023-01-29T02:05:54;3.90;99.90
23116;DHT22;11727;52.134;5.052;2023-01-29T02:08:56;3.90;99.90
23116;DHT22;11727;52.134;5.052;2023-01-29T02:11:41;3.90;99.90
23116;DHT22;11727;52.134;5.052;2023-01-29T02:14:07;3.90;99.90
23116;DHT22;11727;52.134;5.052;2023-01-29T02:16:34;3.90;99.90
23116;DHT22;11727;52.134;5.052;2023-01-29T02:19:00;3.90;99.90
23116;DHT22;11727;52.134;5.052;2023-01-29T02:25:09;3.90;99.90
23116;DHT22;11727;52.134;5.052;2023-01-29T02:30:12;3.90;99.90
23116;DHT22;11727;52.134;5.052;2023-01-29T02:33:01;3.90;99.90
23116;DHT22;11727;52.134;5.052;2023-01-29T02:35:43;3.80;99.90
23116;DHT22;11727;52.134;5.052;2023-01-29T02:40:57;3.90;99.90
23116;DHT22;11727;52.134;5.052;2023-01-29T02:43:47;3.90;99.90
23116;DHT22;11727;52.134;5.052;2023-01-29T02:52:04;3.90;99.90
23116;DHT22;11727;52.134;5.052;2023-01-29T02:55:08;3.90;99.90
23116;DHT22;11727;52.134;5.052;2023-01-29T02:57:38;3.90;99.90
23116;DHT22;11727;52.134;5.052;2023-01-29T03:00:20;3.90;99.90
23116;DHT22;11727;52.134;5.052;2023-01-29T03:03:12;3.90;99.90
23116;DHT22;11727;52.134;5.052;2023-01-29T03:05:57;3.90;99.90
23116;DHT22;11727;52.134;5.052;2023-01-29T03:08:39;3.90;99.90
23116;DHT22;11727;52.134;5.052;2023-01-29T03:11:13;3.90;99.90
23116;DHT22;11727;52.134;5.052;2023-01-29T03:16:58;3.90;99.90
23116;DHT22;11727;52.134;5.052;2023-01-29T03:19:12;3.80;99.90
23116;DHT22;11727;52.134;5.052;2023-01-29T03:21:46;3.90;99.90
23116;DHT22;11727;52.134;5.052;2023-01-29T03:27:14;3.90;99.90
23116;DHT22;11727;52.134;5.052;2023-01-29T03:30:00;3.80;99.90
23116;DHT22;11727;52.134;5.052;2023-01-29T03:32:45;3.80;99.90
23116;DHT22;11727;52.134;5.052;2023-01-29T03:35:15;3.80;99.90
23116;DHT22;11727;52.134;5.052;2023-01-29T03:37:46;3.80;99.90
23116;DHT22;11727;52.134;5.052;2023-01-29T03:40:13;3.80;99.90
23116;DHT22;11727;52.134;5.052;2023-01-29T03:43:04;3.80;99.90
23116;DHT22;11727;52.134;5.052;2023-01-29T03:48:40;3.80;99.90
23116;DHT22;11727;52.134;5.052;2023-01-29T03:51:29;3.80;99.90
23116;DHT22;11727;52.134;5.052;2023-01-29T03:54:14;3.80;99.90
23116;DHT22;11727;52.134;5.052;2023-01-29T03:59:56;3.80;99.90
23116;DHT22;11727;52.134;5.052;2023-01-29T04:02:30;3.80;99.90
23116;DHT22;11727;52.134;5.052;2023-01-29T04:05:04;3.80;99.90
23116;DHT22;11727;52.134;5.052;2023-01-29T04:07:34;3.80;99.90
23116;DHT22;11727;52.134;5.052;2023-01-29T04:12:36;3.80;99.90
23116;DHT22;11727;52.134;5.052;2023-01-29T04:15:05;3.80;99.90
23116;DHT22;11727;52.134;5.052;2023-01-29T04:17:39;3.80;99.90
23116;DHT22;11727;52.134;5.052;2023-01-29T04:20:06;3.80;99.90
23116;DHT22;11727;52.134;5.052;2023-01-29T04:22:37;3.80;99.90
23116;DHT22;11727;52.134;5.052;2023-01-29T04:25:07;3.80;99.90
23116;DHT22;11727;52.134;5.052;2023-01-29T04:27:55;3.80;99.90
23116;DHT22;11727;52.134;5.052;2023-01-29T04:30:39;3.80;99.90
23116;DHT22;11727;52.134;5.052;2023-01-29T04:33:10;3.80;99.90
23116;DHT22;11727;52.134;5.052;2023-01-29T04:38:43;3.80;99.90
23116;DHT22;11727;52.134;5.052;2023-01-29T05:00:47;3.70;99.90
23116;DHT22;11727;52.134;5.052;2023-01-29T05:02:48;3.70;99.90
23116;DHT22;11727;52.134;5.052;2023-01-29T05:05:15;3.70;99.90
23116;DHT22;11727;52.134;5.052;2023-01-29T05:07:43;3.70;99.90
23116;DHT22;11727;52.134;5.052;2023-01-29T05:10:10;3.70;99.90
23116;DHT22;11727;52.134;5.052;2023-01-29T05:12:37;3.70;99.90
23116;DHT22;11727;52.134;5.052;2023-01-29T05:15:04;3.70;99.90
23116;DHT22;11727;52.134;5.052;2023-01-29T05:17:31;3.70;99.90
23116;DHT22;11727;52.134;5.052;2023-01-29T05:19:57;3.60;99.90
23116;DHT22;11727;52.134;5.052;2023-01-29T05:22:23;3.60;99.90
23116;DHT22;11727;52.134;5.052;2023-01-29T05:24:49;3.60;99.90
23116;DHT22;11727;52.134;5.052;2023-01-29T05:27:18;3.60;99.90
23116;DHT22;11727;52.134;5.052;2023-01-29T05:30:03;3.70;99.90
23116;DHT22;11727;52.134;5.052;2023-01-29T05:32:29;3.70;99.90
23116;DHT22;11727;52.134;5.052;2023-01-29T05:34:55;3.60;99.90
23116;DHT22;11727;52.134;5.052;2023-01-29T05:37:20;3.70;99.90
23116;DHT22;11727;52.134;5.052;2023-01-29T05:39:46;3.70;99.90
23116;DHT22;11727;52.134;5.052;2023-01-29T05:42:11;3.70;99.90
23116;DHT22;11727;52.134;5.052;2023-01-29T05:44:37;3.70;99.90
23116;DHT22;11727;52.134;5.052;2023-01-29T05:47:03;3.60;99.90
23116;DHT22;11727;52.134;5.052;2023-01-29T05:49:28;3.60;99.90
23116;DHT22;11727;52.134;5.052;2023-01-29T05:51:54;3.60;99.90
23116;DHT22;11727;52.134;5.052;2023-01-29T05:54:19;3.60;99.90
23116;DHT22;11727;52.134;5.052;2023-01-29T05:56:45;3.70;99.90
23116;DHT22;11727;52.134;5.052;2023-01-29T05:59:11;3.70;99.90
23116;DHT22;11727;52.134;5.052;2023-01-29T06:01:37;3.70;99.90
23116;DHT22;11727;52.134;5.052;2023-01-29T06:04:02;3.70;99.90
23116;DHT22;11727;52.134;5.052;2023-01-29T06:06:28;3.70;99.90
23116;DHT22;11727;52.134;5.052;2023-01-29T06:08:54;3.70;99.90
23116;DHT22;11727;52.134;5.052;2023-01-29T06:11:20;3.70;99.90
23116;DHT22;11727;52.134;5.052;2023-01-29T06:13:46;3.70;99.90
23116;DHT22;11727;52.134;5.052;2023-01-29T06:16:13;3.60;99.90
23116;DHT22;11727;52.134;5.052;2023-01-29T06:18:39;3.70;99.90
23116;DHT22;11727;52.134;5.052;2023-01-29T06:21:08;3.70;99.90
23116;DHT22;11727;52.134;5.052;2023-01-29T06:23:34;3.70;99.90
23116;DHT22;11727;52.134;5.052;2023-01-29T06:26:00;3.70;99.90
23116;DHT22;11727;52.134;5.052;2023-01-29T06:28:26;3.70;99.90
23116;DHT22;11727;52.134;5.052;2023-01-29T06:30:52;3.60;99.90
23116;DHT22;11727;52.134;5.052;2023-01-29T06:33:17;3.60;99.90
23116;DHT22;11727;52.134;5.052;2023-01-29T06:35:43;3.60;99.90
23116;DHT22;11727;52.134;5.052;2023-01-29T06:38:09;3.70;99.90
23116;DHT22;11727;52.134;5.052;2023-01-29T06:40:34;3.60;99.90
23116;DHT22;11727;52.134;5.052;2023-01-29T06:43:02;3.60;99.90
23116;DHT22;11727;52.134;5.052;2023-01-29T06:45:28;3.60;99.90
23116;DHT22;11727;52.134;5.052;2023-01-29T06:47:53;3.60;99.90
23116;DHT22;11727;52.134;5.052;2023-01-29T06:50:20;3.60;99.90
23116;DHT22;11727;52.134;5.052;2023-01-29T06:52:45;3.50;99.90
23116;DHT22;11727;52.134;5.052;2023-01-29T06:55:11;3.50;99.90
23116;DHT22;11727;52.134;5.052;2023-01-29T06:57:36;3.50;99.90
23116;DHT22;11727;52.134;5.052;2023-01-29T07:00:03;3.40;99.90
23116;DHT22;11727;52.134;5.052;2023-01-29T07:02:29;3.50;99.90
23116;DHT22;11727;52.134;5.052;2023-01-29T07:04:54;3.50;99.90
23116;DHT22;11727;52.134;5.052;2023-01-29T07:07:20;3.50;99.90
23116;DHT22;11727;52.134;5.052;2023-01-29T07:09:45;3.50;99.90
23116;DHT22;11727;52.134;5.052;2023-01-29T07:12:11;3.50;99.90
23116;DHT22;11727;52.134;5.052;2023-01-29T07:14:36;3.50;99.90
23116;DHT22;11727;52.134;5.052;2023-01-29T07:17:02;3.60;99.90
23116;DHT22;11727;52.134;5.052;2023-01-29T07:19:28;3.50;99.90
23116;DHT22;11727;52.134;5.052;2023-01-29T07:21:53;3.60;99.90
23116;DHT22;11727;52.134;5.052;2023-01-29T07:24:19;3.60;99.90
23116;DHT22;11727;52.134;5.052;2023-01-29T07:26:45;3.50;99.90
23116;DHT22;11727;52.134;5.052;2023-01-29T07:29:10;3.50;99.90
23116;DHT22;11727;52.134;5.052;2023-01-29T07:31:36;3.60;99.90
23116;DHT22;11727;52.134;5.052;2023-01-29T07:34:02;3.60;99.90
23116;DHT22;11727;52.134;5.052;2023-01-29T07:36:28;3.60;99.90
23116;DHT22;11727;52.134;5.052;2023-01-29T07:38:54;3.60;99.90
23116;DHT22;11727;52.134;5.052;2023-01-29T07:41:20;3.60;99.90
23116;DHT22;11727;52.134;5.052;2023-01-29T07:43:46;3.60;99.90
23116;DHT22;11727;52.134;5.052;2023-01-29T07:46:12;3.60;99.90
23116;DHT22;11727;52.134;5.052;2023-01-29T07:48:37;3.60;99.90
23116;DHT22;11727;52.134;5.052;2023-01-29T07:51:03;3.60;99.90
23116;DHT22;11727;52.134;5.052;2023-01-29T07:53:29;3.60;99.90
23116;DHT22;11727;52.134;5.052;2023-01-29T07:55:55;3.60;99.90
23116;DHT22;11727;52.134;5.052;2023-01-29T07:58:20;3.60;99.90
23116;DHT22;11727;52.134;5.052;2023-01-29T08:00:46;3.60;99.90
23116;DHT22;11727;52.134;5.052;2023-01-29T08:03:14;3.60;99.90
23116;DHT22;11727;52.134;5.052;2023-01-29T08:05:41;3.60;99.90
23116;DHT22;11727;52.134;5.052;2023-01-29T08:08:07;3.60;99.90
23116;DHT22;11727;52.134;5.052;2023-01-29T08:10:36;3.70;99.90
23116;DHT22;11727;52.134;5.052;2023-01-29T08:13:03;3.70;99.90
23116;DHT22;11727;52.134;5.052;2023-01-29T08:15:30;3.60;99.90
23116;DHT22;11727;52.134;5.052;2023-01-29T08:17:55;3.70;99.90
23116;DHT22;11727;52.134;5.052;2023-01-29T08:20:22;3.60;99.90
23116;DHT22;11727;52.134;5.052;2023-01-29T08:22:48;3.60;99.90
23116;DHT22;11727;52.134;5.052;2023-01-29T08:25:14;3.60;99.90
23116;DHT22;11727;52.134;5.052;2023-01-29T08:27:40;3.60;99.90
23116;DHT22;11727;52.134;5.052;2023-01-29T08:30:07;3.60;99.90
23116;DHT22;11727;52.134;5.052;2023-01-29T08:32:35;3.70;99.90
23116;DHT22;11727;52.134;5.052;2023-01-29T08:35:00;3.70;99.90
23116;DHT22;11727;52.134;5.052;2023-01-29T08:37:26;3.80;99.90
23116;DHT22;11727;52.134;5.052;2023-01-29T08:39:52;3.80;99.90
23116;DHT22;11727;52.134;5.052;2023-01-29T08:42:17;3.80;99.90
23116;DHT22;11727;52.134;5.052;2023-01-29T08:44:43;3.80;99.90
23116;DHT22;11727;52.134;5.052;2023-01-29T08:47:08;3.80;99.90
23116;DHT22;11727;52.134;5.052;2023-01-29T08:49:34;3.80;99.90
23116;DHT22;11727;52.134;5.052;2023-01-29T08:52:00;3.80;99.90
23116;DHT22;11727;52.134;5.052;2023-01-29T08:54:25;3.90;99.90
23116;DHT22;11727;52.134;5.052;2023-01-29T08:56:51;3.90;99.90
23116;DHT22;11727;52.134;5.052;2023-01-29T08:59:17;3.90;99.90
23116;DHT22;11727;52.134;5.052;2023-01-29T09:01:42;4.00;99.90
23116;DHT22;11727;52.134;5.052;2023-01-29T09:04:08;4.00;99.90
23116;DHT22;11727;52.134;5.052;2023-01-29T09:06:33;4.00;99.90
23116;DHT22;11727;52.134;5.052;2023-01-29T09:08:59;4.10;99.90
23116;DHT22;11727;52.134;5.052;2023-01-29T09:11:25;4.20;99.90
23116;DHT22;11727;52.134;5.052;2023-01-29T09:13:50;4.20;99.90
23116;DHT22;11727;52.134;5.052;2023-01-29T09:16:16;4.20;99.90
23116;DHT22;11727;52.134;5.052;2023-01-29T09:18:42;4.20;99.90
23116;DHT22;11727;52.134;5.052;2023-01-29T09:21:07;4.20;99.90
23116;DHT22;11727;52.134;5.052;2023-01-29T09:23:33;4.20;99.90
23116;DHT22;11727;52.134;5.052;2023-01-29T09:25:59;4.20;99.90
23116;DHT22;11727;52.134;5.052;2023-01-29T09:28:24;4.20;99.90
23116;DHT22;11727;52.134;5.052;2023-01-29T09:30:50;4.20;99.90
23116;DHT22;11727;52.134;5.052;2023-01-29T09:33:16;4.30;99.90
23116;DHT22;11727;52.134;5.052;2023-01-29T09:35:43;4.30;99.90
23116;DHT22;11727;52.134;5.052;2023-01-29T09:38:10;4.30;99.90
23116;DHT22;11727;52.134;5.052;2023-01-29T09:40:57;4.30;99.90
23116;DHT22;11727;52.134;5.052;2023-01-29T09:43:45;4.30;99.90
23116;DHT22;11727;52.134;5.052;2023-01-29T09:49:20;4.30;99.90
23116;DHT22;11727;52.134;5.052;2023-01-29T09:51:59;4.30;99.90
23116;DHT22;11727;52.134;5.052;2023-01-29T09:54:28;4.30;99.90
23116;DHT22;11727;52.134;5.052;2023-01-29T09:56:56;4.30;99.90
23116;DHT22;11727;52.134;5.052;2023-01-29T09:59:28;4.30;99.90
23116;DHT22;11727;52.134;5.052;2023-01-29T10:02:09;4.30;99.90
23116;DHT22;11727;52.134;5.052;2023-01-29T10:10:29;4.30;99.90
23116;DHT22;11727;52.134;5.052;2023-01-29T10:15:47;4.40;99.90
23116;DHT22;11727;52.134;5.052;2023-01-29T10:26:57;4.40;99.90
23116;DHT22;11727;52.134;5.052;2023-01-29T10:29:24;4.40;99.90
23116;DHT22;11727;52.134;5.052;2023-01-29T10:31:55;4.40;99.90
23116;DHT22;11727;52.134;5.052;2023-01-29T10:34:37;4.40;99.90
23116;DHT22;11727;52.134;5.052;2023-01-29T10:37:16;4.30;99.90
23116;DHT22;11727;52.134;5.052;2023-01-29T10:39:43;4.40;99.90
23116;DHT22;11727;52.134;5.052;2023-01-29T10:42:42;4.30;99.90
23116;DHT22;11727;52.134;5.052;2023-01-29T10:48:27;4.30;99.90
23116;DHT22;11727;52.134;5.052;2023-01-29T10:51:21;4.40;99.90
23116;DHT22;11727;52.134;5.052;2023-01-29T10:56:38;4.50;99.90
23116;DHT22;11727;52.134;5.052;2023-01-29T11:01:58;4.50;99.90
23116;DHT22;11727;52.134;5.052;2023-01-29T11:04:28;4.50;99.90
23116;DHT22;11727;52.134;5.052;2023-01-29T11:06:55;4.50;99.90
23116;DHT22;11727;52.134;5.052;2023-01-29T11:09:41;4.50;99.90
23116;DHT22;11727;52.134;5.052;2023-01-29T11:12:14;4.50;99.90
23116;DHT22;11727;52.134;5.052;2023-01-29T11:14:47;4.50;99.90
23116;DHT22;11727;52.134;5.052;2023-01-29T11:17:23;4.50;99.90
23116;DHT22;11727;52.134;5.052;2023-01-29T11:19:50;4.60;99.90
23116;DHT22;11727;52.134;5.052;2023-01-29T11:22:21;4.60;99.90
23116;DHT22;11727;52.134;5.052;2023-01-29T11:27:39;4.60;99.90
23116;DHT22;11727;52.134;5.052;2023-01-29T11:33:16;4.50;99.90
23116;DHT22;11727;52.134;5.052;2023-01-29T11:35:42;4.50;99.90
23116;DHT22;11727;52.134;5.052;2023-01-29T11:38:18;4.50;99.90
23116;DHT22;11727;52.134;5.052;2023-01-29T11:40:46;4.50;99.90
23116;DHT22;11727;52.134;5.052;2023-01-29T11:43:27;4.60;99.90
23116;DHT22;11727;52.134;5.052;2023-01-29T11:46:10;4.50;99.90
23116;DHT22;11727;52.134;5.052;2023-01-29T11:48:48;4.50;99.90
23116;DHT22;11727;52.134;5.052;2023-01-29T11:51:26;4.50;99.90
23116;DHT22;11727;52.134;5.052;2023-01-29T11:54:00;4.50;99.90
23116;DHT22;11727;52.134;5.052;2023-01-29T11:56:39;4.50;99.90
23116;DHT22;11727;52.134;5.052;2023-01-29T12:01:46;4.50;99.90
23116;DHT22;11727;52.134;5.052;2023-01-29T12:04:19;4.60;99.90
23116;DHT22;11727;52.134;5.052;2023-01-29T12:06:47;4.60;99.90
23116;DHT22;11727;52.134;5.052;2023-01-29T12:09:24;4.60;99.90
23116;DHT22;11727;52.134;5.052;2023-01-29T12:11:54;4.60;99.90
23116;DHT22;11727;52.134;5.052;2023-01-29T12:14:28;4.60;99.90
23116;DHT22;11727;52.134;5.052;2023-01-29T12:17:32;4.70;99.90
23116;DHT22;11727;52.134;5.052;2023-01-29T12:20:05;4.70;99.90
23116;DHT22;11727;52.134;5.052;2023-01-29T12:22:44;4.70;99.90
23116;DHT22;11727;52.134;5.052;2023-01-29T12:34:21;4.70;99.90
23116;DHT22;11727;52.134;5.052;2023-01-29T12:36:43;4.70;99.90
23116;DHT22;11727;52.134;5.052;2023-01-29T12:39:13;4.80;99.90
23116;DHT22;11727;52.134;5.052;2023-01-29T12:41:55;4.80;99.90
23116;DHT22;11727;52.134;5.052;2023-01-29T12:44:40;4.80;99.90
23116;DHT22;11727;52.134;5.052;2023-01-29T12:49:56;4.80;99.90
23116;DHT22;11727;52.134;5.052;2023-01-29T12:52:39;4.80;99.90
23116;DHT22;11727;52.134;5.052;2023-01-29T12:55:19;4.90;99.90
23116;DHT22;11727;52.134;5.052;2023-01-29T12:57:57;4.90;99.90
23116;DHT22;11727;52.134;5.052;2023-01-29T13:00:37;5.00;99.90
23116;DHT22;11727;52.134;5.052;2023-01-29T13:05:47;5.10;99.90
23116;DHT22;11727;52.134;5.052;2023-01-29T13:08:19;5.20;99.90
23116;DHT22;11727;52.134;5.052;2023-01-29T13:10:49;5.20;99.90
23116;DHT22;11727;52.134;5.052;2023-01-29T13:16:06;5.30;99.90
23116;DHT22;11727;52.134;5.052;2023-01-29T13:18:46;5.40;99.90
23116;DHT22;11727;52.134;5.052;2023-01-29T13:21:20;5.30;99.90
23116;DHT22;11727;52.134;5.052;2023-01-29T13:23:51;5.30;99.90
23116;DHT22;11727;52.134;5.052;2023-01-29T13:26:18;5.30;99.90
23116;DHT22;11727;52.134;5.052;2023-01-29T13:28:45;5.30;99.90
23116;DHT22;11727;52.134;5.052;2023-01-29T13:31:33;5.30;99.90
23116;DHT22;11727;52.134;5.052;2023-01-29T13:34:10;5.30;99.90
23116;DHT22;11727;52.134;5.052;2023-01-29T13:36:41;5.30;99.90
23116;DHT22;11727;52.134;5.052;2023-01-29T13:41:41;5.30;99.90
23116;DHT22;11727;52.134;5.052;2023-01-29T13:44:19;5.40;99.90
23116;DHT22;11727;52.134;5.052;2023-01-29T13:47:07;5.40;99.90
23116;DHT22;11727;52.134;5.052;2023-01-29T13:49:40;5.40;99.90
23116;DHT22;11727;52.134;5.052;2023-01-29T13:54:57;5.40;99.90
23116;DHT22;11727;52.134;5.052;2023-01-29T14:10:36;5.40;99.90
23116;DHT22;11727;52.134;5.052;2023-01-29T14:18:29;5.50;99.90
23116;DHT22;11727;52.134;5.052;2023-01-29T14:25:47;5.50;99.90
23116;DHT22;11727;52.134;5.052;2023-01-29T14:28:21;5.60;99.90
23116;DHT22;11727;52.134;5.052;2023-01-29T14:30:48;5.60;99.90
23116;DHT22;11727;52.134;5.052;2023-01-29T14:33:36;5.60;99.90
23116;DHT22;11727;52.134;5.052;2023-01-29T14:36:12;5.60;99.90
23116;DHT22;11727;52.134;5.052;2023-01-29T14:38:47;5.50;99.90
23116;DHT22;11727;52.134;5.052;2023-01-29T14:41:32;5.50;99.90
23116;DHT22;11727;52.134;5.052;2023-01-29T14:47:01;5.50;99.90
23116;DHT22;11727;52.134;5.052;2023-01-29T14:52:40;5.50;99.90
23116;DHT22;11727;52.134;5.052;2023-01-29T14:55:13;5.50;99.90
23116;DHT22;11727;52.134;5.052;2023-01-29T14:57:41;5.50;99.90
23116;DHT22;11727;52.134;5.052;2023-01-29T15:00:20;5.50;99.90
23116;DHT22;11727;52.134;5.052;2023-01-29T15:02:48;5.50;99.90
23116;DHT22;11727;52.134;5.052;2023-01-29T15:05:19;5.50;99.90
23116;DHT22;11727;52.134;5.052;2023-01-29T15:11:06;5.40;99.90
23116;DHT22;11727;52.134;5.052;2023-01-29T15:13:31;5.50;99.90
23116;DHT22;11727;52.134;5.052;2023-01-29T15:16:16;5.40;99.90
23116;DHT22;11727;52.134;5.052;2023-01-29T15:18:43;5.40;99.90
23116;DHT22;11727;52.134;5.052;2023-01-29T15:21:11;5.40;99.90
23116;DHT22;11727;52.134;5.052;2023-01-29T15:23:38;5.30;99.90
23116;DHT22;11727;52.134;5.052;2023-01-29T15:26:08;5.40;99.90
23116;DHT22;11727;52.134;5.052;2023-01-29T15:28:37;5.30;99.90
23116;DHT22;11727;52.134;5.052;2023-01-29T15:31:12;5.30;99.90
23116;DHT22;11727;52.134;5.052;2023-01-29T15:33:41;5.30;99.90
23116;DHT22;11727;52.134;5.052;2023-01-29T15:36:07;5.20;99.90
23116;DHT22;11727;52.134;5.052;2023-01-29T15:38:40;5.20;99.90
23116;DHT22;11727;52.134;5.052;2023-01-29T15:41:18;5.20;99.90
23116;DHT22;11727;52.134;5.052;2023-01-29T15:43:46;5.10;99.90
23116;DHT22;11727;52.134;5.052;2023-01-29T15:48:44;5.10;99.90
23116;DHT22;11727;52.134;5.052;2023-01-29T15:51:19;5.10;99.90
23116;DHT22;11727;52.134;5.052;2023-01-29T15:53:53;5.10;99.90
23116;DHT22;11727;52.134;5.052;2023-01-29T15:56:23;5.10;99.90
23116;DHT22;11727;52.134;5.052;2023-01-29T15:58:50;5.10;99.90
23116;DHT22;11727;52.134;5.052;2023-01-29T16:01:16;5.00;99.90
23116;DHT22;11727;52.134;5.052;2023-01-29T16:03:43;5.00;99.90
23116;DHT22;11727;52.134;5.052;2023-01-29T16:06:09;5.00;99.90
23116;DHT22;11727;52.134;5.052;2023-01-29T16:08:35;5.00;99.90
23116;DHT22;11727;52.134;5.052;2023-01-29T16:11:04;4.90;99.90
23116;DHT22;11727;52.134;5.052;2023-01-29T16:13:33;4.90;99.90
23116;DHT22;11727;52.134;5.052;2023-01-29T16:16:03;4.90;99.90
23116;DHT22;11727;52.134;5.052;2023-01-29T16:18:38;4.90;99.90
23116;DHT22;11727;52.134;5.052;2023-01-29T16:21:29;4.80;99.90
23116;DHT22;11727;52.134;5.052;2023-01-29T16:23:58;4.80;99.90
23116;DHT22;11727;52.134;5.052;2023-01-29T16:26:32;4.80;99.90
23116;DHT22;11727;52.134;5.052;2023-01-29T16:29:10;4.80;99.90
23116;DHT22;11727;52.134;5.052;2023-01-29T16:31:36;4.80;99.90
23116;DHT22;11727;52.134;5.052;2023-01-29T16:36:54;4.70;99.90
23116;DHT22;11727;52.134;5.052;2023-01-29T16:39:37;4.70;99.90
23116;DHT22;11727;52.134;5.052;2023-01-29T16:45:00;4.60;99.90
23116;DHT22;11727;52.134;5.052;2023-01-29T16:47:34;4.60;99.90
23116;DHT22;11727;52.134;5.052;2023-01-29T16:50:28;4.60;99.90
23116;DHT22;11727;52.134;5.052;2023-01-29T16:53:24;4.60;99.90
23116;DHT22;11727;52.134;5.052;2023-01-29T16:55:51;4.60;99.90
23116;DHT22;11727;52.134;5.052;2023-01-29T16:58:23;4.60;99.90
23116;DHT22;11727;52.134;5.052;2023-01-29T17:00:52;4.60;99.90
23116;DHT22;11727;52.134;5.052;2023-01-29T17:03:19;4.70;99.90
23116;DHT22;11727;52.134;5.052;2023-01-29T17:05:45;4.60;99.90
23116;DHT22;11727;52.134;5.052;2023-01-29T17:08:32;4.70;99.90
23116;DHT22;11727;52.134;5.052;2023-01-29T17:10:59;4.70;99.90
23116;DHT22;11727;52.134;5.052;2023-01-29T17:13:40;4.70;99.90
23116;DHT22;11727;52.134;5.052;2023-01-29T17:16:25;4.70;99.90
23116;DHT22;11727;52.134;5.052;2023-01-29T17:18:51;4.70;99.90
23116;DHT22;11727;52.134;5.052;2023-01-29T17:21:17;4.70;99.90
23116;DHT22;11727;52.134;5.052;2023-01-29T17:23:43;4.70;99.90
23116;DHT22;11727;52.134;5.052;2023-01-29T17:26:12;4.70;99.90
23116;DHT22;11727;52.134;5.052;2023-01-29T17:28:38;4.70;99.90
23116;DHT22;11727;52.134;5.052;2023-01-29T17:31:04;4.70;99.90
23116;DHT22;11727;52.134;5.052;2023-01-29T17:33:31;4.80;99.90
23116;DHT22;11727;52.134;5.052;2023-01-29T17:35:57;4.80;99.90
23116;DHT22;11727;52.134;5.052;2023-01-29T17:38:23;4.80;99.90
23116;DHT22;11727;52.134;5.052;2023-01-29T17:40:59;4.80;99.90
23116;DHT22;11727;52.134;5.052;2023-01-29T17:43:25;4.70;99.90
23116;DHT22;11727;52.134;5.052;2023-01-29T17:45:50;4.70;99.90
23116;DHT22;11727;52.134;5.052;2023-01-29T17:48:27;4.80;99.90
23116;DHT22;11727;52.134;5.052;2023-01-29T17:50:55;4.70;99.90
23116;DHT22;11727;52.134;5.052;2023-01-29T17:53:22;4.70;99.90
23116;DHT22;11727;52.134;5.052;2023-01-29T17:55:48;4.70;99.90
23116;DHT22;11727;52.134;5.052;2023-01-29T17:58:25;4.70;99.90
23116;DHT22;11727;52.134;5.052;2023-01-29T18:00:52;4.70;99.90
23116;DHT22;11727;52.134;5.052;2023-01-29T18:03:19;4.70;99.90
23116;DHT22;11727;52.134;5.052;2023-01-29T18:05:46;4.70;99.90
23116;DHT22;11727;52.134;5.052;2023-01-29T18:08:32;4.70;99.90
23116;DHT22;11727;52.134;5.052;2023-01-29T18:10:58;4.70;99.90
23116;DHT22;11727;52.134;5.052;2023-01-29T18:13:24;4.70;99.90
23116;DHT22;11727;52.134;5.052;2023-01-29T18:15:50;4.70;99.90
23116;DHT22;11727;52.134;5.052;2023-01-29T18:18:18;4.80;99.90
23116;DHT22;11727;52.134;5.052;2023-01-29T18:20:44;4.80;99.90
23116;DHT22;11727;52.134;5.052;2023-01-29T18:23:11;4.80;99.90
23116;DHT22;11727;52.134;5.052;2023-01-29T18:25:37;4.80;99.90
23116;DHT22;11727;52.134;5.052;2023-01-29T18:28:04;4.80;99.90
23116;DHT22;11727;52.134;5.052;2023-01-29T18:30:30;4.80;99.90
23116;DHT22;11727;52.134;5.052;2023-01-29T18:32:56;4.80;99.90
23116;DHT22;11727;52.134;5.052;2023-01-29T18:35:22;4.80;99.90
23116;DHT22;11727;52.134;5.052;2023-01-29T18:37:48;4.80;99.90
23116;DHT22;11727;52.134;5.052;2023-01-29T18:40:15;4.80;99.90
23116;DHT22;11727;52.134;5.052;2023-01-29T18:42:45;4.80;99.90